createdAt,value
2024-01-15T00:00:26.610Z,16.14
2024-01-15T00:01:26.637Z,16.19
2024-01-15T00:02:26.613Z,16.17
2024-01-15T00:03:26.668Z,16.17
2024-01-15T00:04:26.694Z,16.17
2024-01-15T00:05:26.615Z,16.16
2024-01-15T00:06:26.686Z,16.16
2024-01-15T00:07:26.664Z,16.20
2024-01-15T00:08:26.596Z,16.20
2024-01-15T00:09:26.620Z,16.17
2024-01-15T00:10:26.594Z,16.22
2024-01-15T00:11:26.591Z,16.17
2024-01-15T00:12:26.633Z,16.20
2024-01-15T00:13:26.626Z,16.23
2024-01-15T00:14:26.679Z,16.22
2024-01-15T00:15:26.634Z,16.19
2024-01-15T00:16:26.608Z,16.20
2024-01-15T00:17:26.659Z,16.20
2024-01-15T00:18:26.757Z,16.17
2024-01-15T00:19:26.643Z,16.20
2024-01-15T00:20:28.965Z,16.14
2024-01-15T00:21:26.704Z,16.21
2024-01-15T00:22:26.614Z,16.20
2024-01-15T00:23:26.597Z,16.20
2024-01-15T00:24:26.651Z,16.22
2024-01-15T00:25:26.593Z,16.17
2024-01-15T00:26:26.615Z,16.23
2024-01-15T00:27:26.661Z,16.22
2024-01-15T00:28:26.604Z,16.26
2024-01-15T00:29:26.617Z,16.22
2024-01-15T00:30:26.687Z,16.22
2024-01-15T00:31:26.708Z,16.20
2024-01-15T00:32:26.658Z,16.22
2024-01-15T00:33:26.783Z,16.18
2024-01-15T00:34:26.739Z,16.23
2024-01-15T00:35:26.682Z,16.20
2024-01-15T00:36:26.656Z,16.25
2024-01-15T00:37:26.639Z,16.26
2024-01-15T00:38:26.646Z,16.26
2024-01-15T00:39:26.695Z,16.23
2024-01-15T00:40:26.637Z,16.23
2024-01-15T00:41:26.638Z,16.25
2024-01-15T00:42:26.682Z,16.20
2024-01-15T00:43:26.638Z,16.21
2024-01-15T00:44:26.655Z,16.29
2024-01-15T00:45:26.674Z,16.25
2024-01-15T00:46:26.669Z,16.29
2024-01-15T00:47:26.676Z,16.29
2024-01-15T00:48:26.813Z,16.25
2024-01-15T00:49:26.738Z,16.25
2024-01-15T00:50:26.651Z,16.31
2024-01-15T00:51:26.693Z,16.31
2024-01-15T00:52:26.671Z,16.26
2024-01-15T00:53:26.659Z,16.26
2024-01-15T00:54:26.698Z,16.25
2024-01-15T00:55:26.658Z,16.23
2024-01-15T00:56:26.682Z,16.31
2024-01-15T00:57:26.795Z,16.28
2024-01-15T00:58:26.672Z,16.32
2024-01-15T00:59:26.683Z,16.31
2024-01-15T01:00:26.736Z,16.31
2024-01-15T01:01:26.756Z,16.34
2024-01-15T01:02:26.687Z,16.29
2024-01-15T01:03:26.798Z,16.35
2024-01-15T01:04:26.818Z,16.28
2024-01-15T01:05:26.712Z,16.29
2024-01-15T01:06:26.737Z,16.32
2024-01-15T01:07:26.679Z,16.28
2024-01-15T01:08:26.692Z,16.34
2024-01-15T01:09:26.760Z,16.26
2024-01-15T01:10:26.712Z,16.35
2024-01-15T01:11:26.769Z,16.32
2024-01-15T01:12:26.872Z,16.31
2024-01-15T01:13:26.853Z,16.37
2024-01-15T01:14:26.841Z,16.34
2024-01-15T01:15:26.927Z,16.32
2024-01-15T01:16:26.932Z,16.28
2024-01-15T01:17:27.074Z,16.34
2024-01-15T01:18:27.056Z,16.35
2024-01-15T01:19:27.133Z,16.32
2024-01-15T01:20:27.060Z,16.34
2024-01-15T01:21:27.023Z,16.28
2024-01-15T01:22:27.036Z,16.32
2024-01-15T01:23:27.039Z,16.37
2024-01-15T01:24:27.105Z,16.38
2024-01-15T01:25:27.150Z,16.37
2024-01-15T01:26:27.182Z,16.35
2024-01-15T01:27:27.225Z,16.35
2024-01-15T01:28:27.267Z,16.32
2024-01-15T01:29:27.312Z,16.34
2024-01-15T01:30:27.466Z,16.40
2024-01-15T01:31:27.509Z,16.35
2024-01-15T01:32:27.488Z,16.32
2024-01-15T01:33:27.633Z,16.35
2024-01-15T01:34:28.192Z,16.35
2024-01-15T01:35:27.547Z,16.37
2024-01-15T01:36:27.654Z,16.35
2024-01-15T01:37:27.621Z,16.41
2024-01-15T01:38:27.617Z,16.35
2024-01-15T01:39:27.678Z,16.40
2024-01-15T01:40:27.688Z,16.35
2024-01-15T01:41:27.686Z,16.35
2024-01-15T01:42:27.733Z,16.37
2024-01-15T01:43:27.705Z,16.35
2024-01-15T01:44:27.751Z,16.40
2024-01-15T01:45:27.763Z,16.37
2024-01-15T01:46:27.782Z,16.43
2024-01-15T01:47:27.890Z,16.38
2024-01-15T01:48:27.953Z,16.38
2024-01-15T01:49:27.958Z,16.35
2024-01-15T01:50:27.888Z,16.38
2024-01-15T01:51:27.995Z,16.41
2024-01-15T01:52:27.946Z,16.37
2024-01-15T01:53:28.000Z,16.40
2024-01-15T01:54:28.078Z,16.43
2024-01-15T01:55:28.073Z,16.40
2024-01-15T01:56:28.129Z,16.38
2024-01-15T01:57:28.221Z,16.40
2024-01-15T01:58:28.251Z,16.40
2024-01-15T01:59:28.292Z,16.40
2024-01-15T02:00:28.359Z,16.43
2024-01-15T02:01:28.363Z,16.41
2024-01-15T02:02:28.377Z,16.40
2024-01-15T02:03:28.598Z,16.41
2024-01-15T02:04:28.527Z,16.35
2024-01-15T02:05:28.482Z,16.35
2024-01-15T02:06:28.672Z,16.40
2024-01-15T02:07:28.571Z,16.41
2024-01-15T02:08:28.625Z,16.43
2024-01-15T02:09:28.675Z,16.38
2024-01-15T02:10:28.705Z,16.41
2024-01-15T02:11:28.738Z,16.41
2024-01-15T02:12:28.787Z,16.37
2024-01-15T02:13:28.790Z,16.44
2024-01-15T02:14:28.819Z,16.42
2024-01-15T02:15:28.935Z,16.43
2024-01-15T02:16:28.893Z,16.43
2024-01-15T02:17:28.940Z,16.44
2024-01-15T02:18:29.169Z,16.43
2024-01-15T02:19:29.116Z,16.38
2024-01-15T02:20:29.071Z,16.47
2024-01-15T02:21:29.076Z,16.44
2024-01-15T02:22:29.091Z,16.44
2024-01-15T02:23:29.151Z,16.41
2024-01-15T02:24:29.237Z,16.46
2024-01-15T02:25:29.259Z,16.46
2024-01-15T02:26:29.357Z,16.37
2024-01-15T02:27:29.544Z,16.46
2024-01-15T02:28:29.465Z,16.46
2024-01-15T02:29:29.503Z,16.46
2024-01-15T02:30:29.717Z,16.44
2024-01-15T02:31:29.803Z,16.44
2024-01-15T02:32:29.680Z,16.46
2024-01-15T02:33:29.786Z,16.44
2024-01-15T02:34:29.787Z,16.47
2024-01-15T02:35:29.730Z,16.49
2024-01-15T02:36:29.787Z,16.47
2024-01-15T02:37:29.792Z,16.43
2024-01-15T02:38:29.837Z,16.43
2024-01-15T02:39:29.904Z,16.47
2024-01-15T02:40:29.871Z,16.44
2024-01-15T02:41:29.902Z,16.49
2024-01-15T02:42:29.937Z,16.43
2024-01-15T02:43:29.952Z,16.49
2024-01-15T02:44:30.005Z,16.44
2024-01-15T02:45:30.105Z,16.46
2024-01-15T02:46:30.082Z,16.47
2024-01-15T02:47:30.160Z,16.47
2024-01-15T02:48:30.222Z,16.49
2024-01-15T02:49:30.293Z,16.50
2024-01-15T02:50:30.206Z,16.43
2024-01-15T02:51:30.316Z,16.49
2024-01-15T02:52:30.226Z,16.44
2024-01-15T02:53:30.250Z,16.49
2024-01-15T02:54:30.296Z,16.44
2024-01-15T02:55:30.317Z,16.46
2024-01-15T02:56:30.330Z,16.53
2024-01-15T02:57:30.446Z,16.52
2024-01-15T02:58:30.396Z,16.46
2024-01-15T02:59:30.431Z,16.49
2024-01-15T03:00:30.524Z,16.52
2024-01-15T03:01:30.476Z,16.47
2024-01-15T03:02:30.498Z,16.47
2024-01-15T03:03:30.633Z,16.49
2024-01-15T03:04:30.654Z,16.50
2024-01-15T03:05:30.603Z,16.47
2024-01-15T03:06:30.605Z,16.49
2024-01-15T03:07:30.613Z,16.47
2024-01-15T03:08:30.631Z,16.56
2024-01-15T03:09:30.665Z,16.50
2024-01-15T03:10:30.667Z,16.52
2024-01-15T03:11:30.682Z,16.53
2024-01-15T03:12:30.725Z,16.52
2024-01-15T03:13:30.704Z,16.55
2024-01-15T03:14:30.702Z,16.55
2024-01-15T03:15:30.733Z,16.47
2024-01-15T03:16:30.726Z,16.50
2024-01-15T03:17:30.758Z,16.50
2024-01-15T03:18:30.927Z,16.52
2024-01-15T03:19:30.906Z,16.53
2024-01-15T03:20:30.777Z,16.50
2024-01-15T03:21:30.835Z,16.53
2024-01-15T03:22:30.824Z,16.50
2024-01-15T03:23:30.861Z,16.53
2024-01-15T03:24:30.885Z,16.53
2024-01-15T03:25:30.872Z,16.53
2024-01-15T03:26:30.864Z,16.53
2024-01-15T03:27:30.921Z,16.52
2024-01-15T03:28:30.903Z,16.55
2024-01-15T03:29:30.931Z,16.53
2024-01-15T03:30:30.987Z,16.52
2024-01-15T03:31:31.036Z,16.50
2024-01-15T03:32:30.996Z,16.52
2024-01-15T03:33:31.060Z,16.50
2024-01-15T03:34:30.983Z,16.47
2024-01-15T03:35:30.988Z,16.52
2024-01-15T03:36:31.020Z,16.53
2024-01-15T03:37:31.012Z,16.50
2024-01-15T03:38:31.000Z,16.49
2024-01-15T03:39:31.096Z,16.55
2024-01-15T03:40:31.149Z,16.47
2024-01-15T03:41:31.069Z,16.53
2024-01-15T03:42:31.112Z,16.58
2024-01-15T03:43:31.077Z,16.53
2024-01-15T03:44:31.105Z,16.53
2024-01-15T03:45:31.195Z,16.50
2024-01-15T03:46:31.202Z,16.52
2024-01-15T03:47:31.248Z,16.49
2024-01-15T03:48:31.357Z,16.50
2024-01-15T03:49:31.363Z,16.50
2024-01-15T03:50:31.285Z,16.49
2024-01-15T03:51:31.320Z,16.52
2024-01-15T03:52:31.319Z,16.47
2024-01-15T03:53:31.348Z,16.51
2024-01-15T03:54:31.379Z,16.46
2024-01-15T03:55:31.403Z,16.47
2024-01-15T03:56:31.430Z,16.49
2024-01-15T03:57:31.523Z,16.46
2024-01-15T03:58:31.524Z,16.46
2024-01-15T03:59:31.543Z,16.51
2024-01-15T04:00:31.680Z,16.46
2024-01-15T04:01:31.671Z,16.54
2024-01-15T04:02:31.712Z,16.52
2024-01-15T04:03:31.869Z,16.49
2024-01-15T04:04:31.906Z,16.52
2024-01-15T04:05:31.887Z,16.49
2024-01-15T04:06:32.031Z,16.47
2024-01-15T04:07:31.980Z,16.51
2024-01-15T04:08:32.029Z,16.44
2024-01-15T04:09:32.091Z,16.52
2024-01-15T04:10:32.112Z,16.51
2024-01-15T04:11:32.136Z,16.46
2024-01-15T04:12:32.250Z,16.47
2024-01-15T04:13:32.207Z,16.51
2024-01-15T04:14:32.262Z,16.51
2024-01-15T04:15:32.314Z,16.51
2024-01-15T04:16:32.308Z,16.51
2024-01-15T04:17:32.349Z,16.47
2024-01-15T04:18:32.383Z,16.50
2024-01-15T04:19:32.428Z,16.50
2024-01-15T04:20:32.412Z,16.52
2024-01-15T04:21:32.502Z,16.49
2024-01-15T04:22:32.513Z,16.49
2024-01-15T04:23:32.540Z,16.49
2024-01-15T04:24:32.590Z,16.50
2024-01-15T04:25:32.629Z,16.49
2024-01-15T04:26:39.833Z,16.49
2024-01-15T04:27:39.884Z,16.50
2024-01-15T04:28:39.850Z,16.56
2024-01-15T04:29:41.276Z,16.50
2024-01-15T04:30:40.027Z,16.44
2024-01-15T04:31:47.461Z,16.52
2024-01-15T04:32:47.393Z,16.53
2024-01-15T04:33:47.336Z,16.49
2024-01-15T04:34:47.454Z,16.55
2024-01-15T04:35:47.315Z,16.52
2024-01-15T04:36:47.428Z,16.53
2024-01-15T04:37:47.328Z,16.50
2024-01-15T04:38:47.348Z,16.50
2024-01-15T04:39:47.456Z,16.53
2024-01-15T04:40:47.337Z,16.56
2024-01-15T04:41:47.360Z,16.52
2024-01-15T04:42:47.387Z,16.56
2024-01-15T04:43:47.345Z,16.53
2024-01-15T04:44:47.340Z,16.52
2024-01-15T04:45:47.419Z,16.52
2024-01-15T04:46:47.318Z,16.59
2024-01-15T04:47:47.343Z,16.55
2024-01-15T04:48:47.530Z,16.52
2024-01-15T04:49:47.416Z,16.55
2024-01-15T04:50:47.349Z,16.56
2024-01-15T04:51:47.444Z,16.49
2024-01-15T04:52:47.334Z,16.52
2024-01-15T04:53:47.341Z,16.55
2024-01-15T04:54:47.523Z,16.56
2024-01-15T04:55:47.347Z,16.56
2024-01-15T04:56:47.361Z,16.51
2024-01-15T04:57:47.471Z,16.52
2024-01-15T04:58:47.369Z,16.53
2024-01-15T04:59:47.343Z,16.55
2024-01-15T05:00:47.465Z,16.58
2024-01-15T05:01:47.366Z,16.55
2024-01-15T05:02:47.377Z,16.51
2024-01-15T05:03:47.497Z,16.56
2024-01-15T05:04:47.349Z,16.59
2024-01-15T05:05:47.399Z,16.55
2024-01-15T05:06:47.483Z,16.56
2024-01-15T05:07:47.354Z,16.52
2024-01-15T05:08:47.350Z,16.53
2024-01-15T05:09:47.453Z,16.51
2024-01-15T05:10:47.372Z,16.56
2024-01-15T05:11:47.383Z,16.50
2024-01-15T05:12:47.445Z,16.60
2024-01-15T05:13:47.393Z,16.50
2024-01-15T05:14:47.362Z,16.55
2024-01-15T05:15:47.436Z,16.53
2024-01-15T05:16:47.428Z,16.59
2024-01-15T05:17:47.388Z,16.58
2024-01-15T05:18:47.495Z,16.56
2024-01-15T05:19:47.455Z,16.53
2024-01-15T05:20:47.433Z,16.59
2024-01-15T05:21:47.486Z,16.55
2024-01-15T05:22:47.380Z,16.56
2024-01-15T05:23:47.405Z,16.50
2024-01-15T05:24:47.495Z,16.51
2024-01-15T05:25:47.384Z,16.58
2024-01-15T05:26:47.424Z,16.55
2024-01-15T05:27:47.439Z,16.55
2024-01-15T05:28:47.409Z,16.55
2024-01-15T05:29:47.406Z,16.56
2024-01-15T05:30:47.560Z,16.56
2024-01-15T05:31:47.530Z,16.55
2024-01-15T05:32:47.422Z,16.59
2024-01-15T05:33:47.563Z,16.56
2024-01-15T05:34:47.485Z,16.56
2024-01-15T05:35:47.435Z,16.59
2024-01-15T05:36:47.433Z,16.56
2024-01-15T05:37:47.414Z,16.56
2024-01-15T05:38:47.428Z,16.59
2024-01-15T05:39:47.478Z,16.58
2024-01-15T05:40:47.414Z,16.54
2024-01-15T05:41:47.473Z,16.62
2024-01-15T05:42:47.452Z,16.60
2024-01-15T05:43:47.442Z,16.54
2024-01-15T05:44:47.436Z,16.59
2024-01-15T05:45:47.492Z,16.59
2024-01-15T05:46:47.987Z,16.57
2024-01-15T05:47:47.496Z,16.54
2024-01-15T05:48:47.526Z,16.62
2024-01-15T05:49:47.492Z,16.59
2024-01-15T05:50:47.449Z,16.59
2024-01-15T05:51:47.491Z,16.57
2024-01-15T05:52:47.436Z,16.59
2024-01-15T05:53:48.507Z,16.60
2024-01-15T05:54:47.544Z,16.54
2024-01-15T05:55:47.460Z,16.57
2024-01-15T05:56:47.465Z,16.57
2024-01-15T05:57:47.594Z,16.62
2024-01-15T05:58:47.958Z,16.62
2024-01-15T05:59:47.505Z,16.59
2024-01-15T06:00:47.521Z,16.57
2024-01-15T06:01:47.497Z,16.65
2024-01-15T06:02:47.476Z,16.63
2024-01-15T06:03:47.516Z,16.66
2024-01-15T06:04:47.537Z,16.66
2024-01-15T06:05:47.506Z,16.62
2024-01-15T06:06:47.484Z,16.63
2024-01-15T06:07:47.469Z,16.63
2024-01-15T06:08:47.496Z,16.65
2024-01-15T06:09:47.557Z,16.68
2024-01-15T06:10:47.506Z,16.63
2024-01-15T06:11:47.478Z,16.66
2024-01-15T06:12:47.580Z,16.63
2024-01-15T06:13:47.482Z,16.68
2024-01-15T06:14:47.497Z,16.68
2024-01-15T06:15:47.565Z,16.66
2024-01-15T06:16:47.528Z,16.68
2024-01-15T06:17:47.690Z,16.60
2024-01-15T06:18:47.678Z,16.68
2024-01-15T06:19:47.695Z,16.68
2024-01-15T06:20:47.548Z,16.83
2024-01-15T06:21:47.593Z,16.86
2024-01-15T06:22:47.593Z,16.80
2024-01-15T06:23:47.575Z,16.81
2024-01-15T06:24:47.671Z,16.77
2024-01-15T06:25:47.626Z,16.76
2024-01-15T06:26:47.637Z,16.74
2024-01-15T06:27:47.757Z,16.73
2024-01-15T06:28:47.641Z,16.70
2024-01-15T06:29:50.307Z,16.82
2024-01-15T06:30:48.000Z,17.40
2024-01-15T06:31:47.802Z,17.74
2024-01-15T06:32:47.746Z,19.19
2024-01-15T06:33:47.756Z,18.41
2024-01-15T06:34:47.687Z,20.41
2024-01-15T06:35:47.961Z,20.25
2024-01-15T06:36:47.682Z,19.87
2024-01-15T06:37:47.620Z,19.67
2024-01-15T06:38:47.652Z,19.03
2024-01-15T06:39:47.720Z,19.08
2024-01-15T06:40:49.672Z,20.14
2024-01-15T06:41:47.764Z,19.94
2024-01-15T06:42:47.733Z,19.96
2024-01-15T06:43:47.675Z,19.54
2024-01-15T06:44:47.672Z,19.20
2024-01-15T06:45:47.861Z,18.79
2024-01-15T06:46:47.707Z,19.01
2024-01-15T06:47:47.715Z,20.59
2024-01-15T06:48:47.745Z,19.74
2024-01-15T06:49:47.737Z,19.30
2024-01-15T06:50:47.954Z,19.72
2024-01-15T06:51:49.656Z,19.40
2024-01-15T06:52:47.693Z,19.46
2024-01-15T06:53:47.672Z,19.24
2024-01-15T06:54:47.766Z,19.36
2024-01-15T06:55:47.776Z,19.48
2024-01-15T06:56:47.965Z,19.45
2024-01-15T06:57:47.821Z,19.93
2024-01-15T06:58:47.802Z,20.22
2024-01-15T06:59:47.853Z,19.84
2024-01-15T07:00:47.929Z,19.26
2024-01-15T07:01:48.021Z,19.54
2024-01-15T07:02:47.955Z,19.14
2024-01-15T07:03:48.073Z,19.14
2024-01-15T07:04:48.038Z,19.90
2024-01-15T07:05:48.505Z,20.03
2024-01-15T07:06:48.093Z,19.62
2024-01-15T07:07:48.066Z,19.06
2024-01-15T07:08:48.088Z,20.28
2024-01-15T07:09:48.212Z,19.60
2024-01-15T07:10:48.132Z,20.37
2024-01-15T07:11:48.154Z,19.81
2024-01-15T07:12:48.350Z,18.96
2024-01-15T07:13:48.214Z,18.80
2024-01-15T07:14:48.271Z,18.73
2024-01-15T07:15:48.294Z,18.98
2024-01-15T07:16:48.988Z,18.70
2024-01-15T07:17:48.360Z,18.73
2024-01-15T07:18:48.396Z,18.42
2024-01-15T07:19:48.507Z,18.64
2024-01-15T07:20:48.354Z,19.20
2024-01-15T07:21:48.436Z,19.04
2024-01-15T07:22:48.411Z,19.04
2024-01-15T07:23:48.420Z,20.11
2024-01-15T07:24:48.498Z,18.88
2024-01-15T07:25:48.473Z,18.90
2024-01-15T07:26:48.489Z,18.72
2024-01-15T07:27:48.516Z,18.61
2024-01-15T07:28:48.523Z,18.93
2024-01-15T07:29:48.526Z,18.78
2024-01-15T07:30:48.744Z,19.73
2024-01-15T07:31:49.227Z,19.91
2024-01-15T07:32:48.634Z,20.62
2024-01-15T07:33:48.740Z,20.43
2024-01-15T07:34:48.866Z,20.01
2024-01-15T07:35:48.690Z,20.44
2024-01-15T07:36:49.053Z,20.59
2024-01-15T07:37:48.726Z,20.00
2024-01-15T07:38:48.759Z,20.16
2024-01-15T07:39:48.787Z,19.89
2024-01-15T07:40:48.770Z,19.85
2024-01-15T07:41:48.798Z,19.71
2024-01-15T07:42:48.948Z,19.73
2024-01-15T07:43:48.808Z,19.85
2024-01-15T07:44:48.802Z,19.73
2024-01-15T07:45:48.859Z,19.39
2024-01-15T07:46:48.878Z,19.14
2024-01-15T07:47:48.963Z,18.85
2024-01-15T07:48:49.037Z,19.50
2024-01-15T07:49:48.999Z,19.51
2024-01-15T07:50:48.863Z,20.11
2024-01-15T07:51:48.986Z,20.00
2024-01-15T07:52:48.886Z,19.43
2024-01-15T07:53:48.867Z,19.48
2024-01-15T07:54:48.973Z,19.51
2024-01-15T07:55:48.891Z,19.50
2024-01-15T07:56:48.920Z,19.36
2024-01-15T07:57:56.482Z,19.28
2024-01-15T07:58:49.895Z,19.67
2024-01-15T07:59:48.885Z,20.09
2024-01-15T08:00:48.995Z,20.05
2024-01-15T08:01:48.977Z,20.71
2024-01-15T08:02:48.989Z,20.69
2024-01-15T08:03:48.988Z,20.66
2024-01-15T08:04:48.984Z,20.34
2024-01-15T08:05:48.974Z,20.40
2024-01-15T08:06:48.975Z,20.64
2024-01-15T08:07:48.921Z,20.60
2024-01-15T08:08:48.933Z,20.13
2024-01-15T08:09:49.067Z,19.91
2024-01-15T08:10:48.915Z,20.61
2024-01-15T08:11:48.933Z,20.41
2024-01-15T08:12:49.039Z,20.59
2024-01-15T08:13:48.929Z,20.10
2024-01-15T08:14:48.904Z,20.26
2024-01-15T08:15:49.071Z,19.52
2024-01-15T08:16:49.043Z,19.97
2024-01-15T08:17:49.228Z,19.74
2024-01-15T08:18:49.383Z,20.20
2024-01-15T08:19:49.381Z,20.12
2024-01-15T08:20:49.346Z,19.77
2024-01-15T08:21:49.494Z,19.71
2024-01-15T08:22:49.423Z,19.75
2024-01-15T08:23:49.481Z,19.55
2024-01-15T08:24:49.590Z,19.87
2024-01-15T08:25:49.601Z,20.40
2024-01-15T08:26:50.031Z,20.46
2024-01-15T08:27:50.108Z,20.92
2024-01-15T08:28:49.767Z,20.86
2024-01-15T08:29:49.831Z,20.71
2024-01-15T08:30:50.000Z,20.82
2024-01-15T08:31:50.017Z,20.28
2024-01-15T08:32:50.115Z,20.08
2024-01-15T08:33:50.173Z,20.04
2024-01-15T08:34:50.282Z,19.84
2024-01-15T08:35:50.216Z,20.01
2024-01-15T08:36:50.411Z,20.63
2024-01-15T08:37:50.354Z,20.32
2024-01-15T08:38:50.441Z,20.00
2024-01-15T08:39:52.445Z,19.97
2024-01-15T08:40:50.549Z,19.94
2024-01-15T08:41:51.043Z,19.97
2024-01-15T08:42:50.811Z,19.97
2024-01-15T08:43:50.749Z,19.91
2024-01-15T08:44:50.829Z,19.79
2024-01-15T08:45:50.916Z,19.75
2024-01-15T08:46:50.980Z,19.53
2024-01-15T08:47:51.067Z,19.58
2024-01-15T08:48:51.157Z,19.49
2024-01-15T08:49:51.274Z,19.45
2024-01-15T08:50:53.081Z,19.57
2024-01-15T08:51:51.405Z,19.43
2024-01-15T08:52:51.331Z,19.37
2024-01-15T08:53:51.389Z,19.64
2024-01-15T08:54:51.488Z,19.80
2024-01-15T08:55:51.513Z,19.57
2024-01-15T08:56:51.579Z,19.51
2024-01-15T08:57:51.812Z,19.36
2024-01-15T08:58:51.680Z,19.31
2024-01-15T08:59:53.239Z,19.89
2024-01-15T09:00:51.835Z,19.90
2024-01-15T09:01:51.972Z,19.80
2024-01-15T09:02:51.869Z,19.46
2024-01-15T09:03:52.020Z,19.26
2024-01-15T09:04:52.033Z,19.28
2024-01-15T09:05:52.194Z,19.34
2024-01-15T09:06:52.576Z,19.19
2024-01-15T09:07:52.080Z,19.10
2024-01-15T09:08:52.110Z,19.10
2024-01-15T09:09:52.229Z,19.02
2024-01-15T09:10:52.188Z,19.06
2024-01-15T09:11:52.222Z,19.12
2024-01-15T09:12:52.252Z,19.23
2024-01-15T09:13:52.275Z,19.32
2024-01-15T09:14:52.302Z,19.39
2024-01-15T09:15:52.449Z,19.59
2024-01-15T09:16:52.555Z,19.45
2024-01-15T09:17:52.482Z,19.86
2024-01-15T09:18:52.531Z,19.52
2024-01-15T09:19:52.580Z,19.40
2024-01-15T09:20:52.578Z,19.22
2024-01-15T09:21:53.055Z,20.03
2024-01-15T09:22:52.658Z,20.04
2024-01-15T09:23:52.704Z,19.34
2024-01-15T09:24:52.798Z,19.48
2024-01-15T09:25:52.811Z,19.29
2024-01-15T09:26:52.822Z,19.19
2024-01-15T09:27:52.964Z,19.53
2024-01-15T09:28:52.896Z,20.01
2024-01-15T09:29:52.895Z,20.00
2024-01-15T09:30:53.010Z,19.66
2024-01-15T09:31:53.549Z,20.05
2024-01-15T09:32:53.060Z,20.75
2024-01-15T09:33:53.026Z,21.40
2024-01-15T09:34:53.041Z,21.49
2024-01-15T09:35:53.014Z,21.62
2024-01-15T09:36:53.585Z,21.50
2024-01-15T09:37:53.060Z,22.25
2024-01-15T09:38:53.079Z,21.78
2024-01-15T09:39:54.186Z,21.39
2024-01-15T09:40:53.157Z,21.15
2024-01-15T09:41:53.234Z,20.73
2024-01-15T09:42:53.325Z,20.49
2024-01-15T09:43:53.349Z,20.33
2024-01-15T09:44:53.399Z,20.27
2024-01-15T09:45:53.462Z,21.20
2024-01-15T09:46:53.473Z,20.90
2024-01-15T09:47:53.526Z,20.81
2024-01-15T09:48:53.633Z,20.89
2024-01-15T09:49:53.580Z,20.91
2024-01-15T09:50:53.612Z,20.98
2024-01-15T09:51:59.296Z,20.78
2024-01-15T09:52:54.573Z,21.03
2024-01-15T09:53:53.557Z,21.05
2024-01-15T09:54:53.588Z,21.71
2024-01-15T09:55:53.620Z,21.38
2024-01-15T09:56:53.578Z,21.17
2024-01-15T09:57:53.572Z,21.13
2024-01-15T09:58:53.650Z,20.88
2024-01-15T09:59:53.584Z,21.01
2024-01-15T10:00:53.714Z,21.18
2024-01-15T10:01:53.738Z,21.29
2024-01-15T10:02:53.704Z,21.37
2024-01-15T10:03:53.940Z,21.42
2024-01-15T10:04:53.837Z,21.19
2024-01-15T10:05:53.850Z,21.36
2024-01-15T10:06:54.002Z,21.16
2024-01-15T10:07:53.942Z,21.27
2024-01-15T10:08:53.993Z,21.18
2024-01-15T10:09:54.216Z,21.31
2024-01-15T10:10:54.052Z,21.37
2024-01-15T10:11:54.102Z,21.33
2024-01-15T10:12:54.251Z,21.47
2024-01-15T10:13:55.799Z,21.36
2024-01-15T10:14:54.176Z,21.39
2024-01-15T10:15:54.272Z,21.38
2024-01-15T10:16:54.233Z,21.36
2024-01-15T10:17:54.280Z,21.60
2024-01-15T10:18:54.378Z,21.46
2024-01-15T10:19:54.242Z,21.38
2024-01-15T10:20:54.242Z,21.49
2024-01-15T10:21:54.247Z,21.60
2024-01-15T10:22:54.277Z,21.69
2024-01-15T10:23:54.209Z,21.60
2024-01-15T10:24:54.326Z,21.77
2024-01-15T10:25:54.206Z,21.71
2024-01-15T10:26:55.076Z,22.43
2024-01-15T10:27:54.261Z,22.48
2024-01-15T10:28:54.199Z,22.64
2024-01-15T10:29:54.206Z,22.23
2024-01-15T10:30:54.345Z,22.39
2024-01-15T10:31:54.309Z,22.16
2024-01-15T10:32:54.578Z,21.81
2024-01-15T10:33:54.445Z,21.53
2024-01-15T10:34:54.539Z,21.50
2024-01-15T10:35:54.249Z,21.83
2024-01-15T10:36:54.488Z,21.99
2024-01-15T10:37:54.567Z,22.06
2024-01-15T10:38:54.216Z,22.08
2024-01-15T10:39:54.400Z,22.10
2024-01-15T10:40:54.278Z,22.28
2024-01-15T10:41:54.251Z,22.16
2024-01-15T10:42:54.626Z,22.13
2024-01-15T10:43:54.259Z,22.21
2024-01-15T10:44:54.249Z,22.35
2024-01-15T10:45:54.304Z,22.52
2024-01-15T10:46:54.262Z,22.72
2024-01-15T10:47:54.392Z,22.60
2024-01-15T10:48:54.499Z,22.90
2024-01-15T10:49:54.395Z,22.90
2024-01-15T10:50:54.246Z,23.09
2024-01-15T10:51:54.375Z,22.78
2024-01-15T10:52:54.259Z,23.02
2024-01-15T10:53:54.316Z,22.81
2024-01-15T10:54:54.393Z,23.03
2024-01-15T10:55:54.271Z,23.15
2024-01-15T10:56:54.266Z,23.17
2024-01-15T10:57:54.366Z,22.97
2024-01-15T10:58:55.929Z,23.73
2024-01-15T10:59:54.274Z,22.74
2024-01-15T11:00:54.453Z,22.29
2024-01-15T11:01:54.655Z,22.27
2024-01-15T11:02:54.291Z,20.90
2024-01-15T11:03:54.372Z,21.45
2024-01-15T11:04:54.440Z,21.37
2024-01-15T11:05:54.392Z,21.16
2024-01-15T11:06:54.562Z,21.50
2024-01-15T11:07:54.360Z,21.21
2024-01-15T11:08:54.402Z,21.11
2024-01-15T11:09:54.397Z,21.09
2024-01-15T11:10:54.290Z,21.09
2024-01-15T11:11:54.294Z,21.30
2024-01-15T11:12:54.472Z,21.31
2024-01-15T11:13:54.341Z,21.42
2024-01-15T11:14:54.347Z,21.25
2024-01-15T11:15:54.438Z,21.44
2024-01-15T11:16:54.302Z,21.23
2024-01-15T11:17:54.436Z,21.06
2024-01-15T11:18:54.365Z,20.75
2024-01-15T11:19:54.842Z,20.78
2024-01-15T11:20:54.313Z,20.84
2024-01-15T11:21:54.459Z,20.85
2024-01-15T11:22:54.331Z,20.76
2024-01-15T11:23:55.071Z,20.70
2024-01-15T11:24:54.393Z,20.59
2024-01-15T11:25:54.398Z,20.56
2024-01-15T11:26:54.315Z,20.57
2024-01-15T11:27:55.120Z,20.52
2024-01-15T11:28:54.311Z,20.35
2024-01-15T11:29:54.347Z,20.31
2024-01-15T11:30:54.378Z,20.28
2024-01-15T11:31:54.421Z,20.21
2024-01-15T11:32:54.502Z,20.15
2024-01-15T11:33:54.497Z,20.02
2024-01-15T11:34:54.529Z,20.04
2024-01-15T11:35:54.394Z,19.99
2024-01-15T11:36:54.511Z,19.89
2024-01-15T11:37:54.606Z,19.89
2024-01-15T11:38:54.334Z,19.85
2024-01-15T11:39:54.424Z,19.71
2024-01-15T11:40:54.401Z,19.65
2024-01-15T11:41:54.343Z,19.62
2024-01-15T11:42:54.392Z,19.59
2024-01-15T11:43:54.374Z,19.62
2024-01-15T11:44:54.415Z,19.54
2024-01-15T11:45:54.489Z,19.48
2024-01-15T11:46:54.415Z,19.53
2024-01-15T11:47:54.511Z,19.51
2024-01-15T11:48:54.474Z,19.49
2024-01-15T11:49:54.540Z,19.65
2024-01-15T11:50:54.398Z,19.48
2024-01-15T11:51:54.385Z,19.46
2024-01-15T11:52:54.356Z,19.47
2024-01-15T11:53:54.352Z,19.46
2024-01-15T11:54:54.455Z,19.46
2024-01-15T11:55:54.412Z,19.45
2024-01-15T11:56:54.374Z,19.36
2024-01-15T11:57:54.478Z,19.58
2024-01-15T11:58:54.373Z,19.53
2024-01-15T11:59:54.390Z,19.70
2024-01-15T12:00:54.827Z,19.95
2024-01-15T12:01:54.466Z,19.80
2024-01-15T12:02:54.403Z,19.83
2024-01-15T12:03:54.425Z,19.87
2024-01-15T12:04:54.409Z,19.88
2024-01-15T12:05:54.528Z,19.77
2024-01-15T12:06:54.510Z,19.86
2024-01-15T12:07:54.405Z,19.83
2024-01-15T12:08:54.437Z,19.86
2024-01-15T12:09:54.523Z,19.86
2024-01-15T12:10:54.530Z,19.77
2024-01-15T12:11:54.578Z,19.55
2024-01-15T12:12:55.178Z,19.77
2024-01-15T12:13:54.734Z,19.67
2024-01-15T12:14:54.886Z,19.64
2024-01-15T12:15:54.752Z,19.56
2024-01-15T12:16:54.782Z,19.58
2024-01-15T12:17:55.135Z,19.61
2024-01-15T12:18:54.960Z,19.55
2024-01-15T12:19:54.956Z,19.56
2024-01-15T12:20:54.950Z,19.57
2024-01-15T12:21:55.009Z,19.51
2024-01-15T12:23:01.352Z,19.52
2024-01-15T12:23:56.058Z,19.49
2024-01-15T12:24:55.072Z,19.46
2024-01-15T12:25:55.052Z,19.46
2024-01-15T12:26:55.072Z,19.47
2024-01-15T12:27:55.064Z,19.51
2024-01-15T12:28:57.516Z,19.49
2024-01-15T12:29:55.095Z,19.51
2024-01-15T12:30:55.137Z,19.46
2024-01-15T12:31:55.153Z,19.45
2024-01-15T12:32:55.141Z,19.45
2024-01-15T12:33:55.142Z,19.39
2024-01-15T12:34:55.075Z,19.51
2024-01-15T12:35:55.093Z,19.46
2024-01-15T12:36:55.122Z,19.49
2024-01-15T12:37:55.067Z,19.43
2024-01-15T12:38:55.086Z,19.45
2024-01-15T12:39:55.090Z,19.45
2024-01-15T12:40:55.087Z,19.46
2024-01-15T12:41:55.078Z,19.43
2024-01-15T12:42:55.108Z,19.42
2024-01-15T12:43:55.068Z,19.46
2024-01-15T12:44:55.107Z,19.45
2024-01-15T12:45:55.122Z,19.48
2024-01-15T12:46:55.098Z,19.46
2024-01-15T12:47:55.108Z,19.46
2024-01-15T12:48:55.150Z,19.47
2024-01-15T12:49:58.064Z,19.51
2024-01-15T12:50:56.103Z,19.45
2024-01-15T12:51:55.124Z,19.52
2024-01-15T12:52:55.102Z,19.46